createdAt,value
2017-03-10T00:00:04.964Z,0
2017-03-10T00:01:18.883Z,0
2017-03-10T00:02:32.837Z,0
2017-03-10T00:03:46.740Z,0
2017-03-10T00:05:00.322Z,0
2017-03-10T00:06:13.769Z,0
2017-03-10T00:07:27.269Z,0
2017-03-10T00:08:43.233Z,0
2017-03-10T00:09:57.793Z,0
2017-03-10T00:11:11.367Z,0
2017-03-10T00:12:24.785Z,0
2017-03-10T00:13:42.212Z,0
2017-03-10T00:14:57.085Z,0
2017-03-10T00:16:10.695Z,0
2017-03-10T00:17:24.243Z,0
2017-03-10T00:18:38.180Z,0
2017-03-10T00:19:51.745Z,0
2017-03-10T00:21:05.249Z,0
2017-03-10T00:22:19.154Z,0
2017-03-10T00:23:32.993Z,0
2017-03-10T00:24:46.870Z,0
2017-03-10T00:26:00.552Z,0
2017-03-10T00:27:14.403Z,0
2017-03-10T00:28:27.896Z,0
2017-03-10T00:29:41.329Z,0
2017-03-10T00:30:55.583Z,0
2017-03-10T00:32:09.124Z,0
2017-03-10T00:33:22.703Z,0
2017-03-10T00:34:36.161Z,0
2017-03-10T00:35:49.597Z,0
2017-03-10T00:37:03.131Z,0
2017-03-10T00:38:17.006Z,0
2017-03-10T00:39:30.467Z,0
2017-03-10T00:40:43.955Z,0
2017-03-10T00:41:58.541Z,0
2017-03-10T00:43:12.014Z,0
2017-03-10T00:44:25.874Z,0
2017-03-10T00:45:39.329Z,0
2017-03-10T00:46:52.803Z,0
2017-03-10T00:48:06.432Z,0
2017-03-10T00:49:20.406Z,0
2017-03-10T00:50:34.315Z,0
2017-03-10T00:51:47.776Z,0
2017-03-10T00:53:01.486Z,0
2017-03-10T00:54:15.384Z,0
2017-03-10T00:55:28.871Z,0
2017-03-10T00:56:42.335Z,0
2017-03-10T00:57:56.045Z,0
2017-03-10T00:59:09.494Z,0
2017-03-10T01:00:22.977Z,0
2017-03-10T01:01:36.517Z,0
2017-03-10T01:02:49.962Z,0
2017-03-10T01:04:03.868Z,0
2017-03-10T01:05:17.371Z,0
2017-03-10T01:06:30.859Z,0
2017-03-10T01:07:45.688Z,0
2017-03-10T01:08:59.284Z,0
2017-03-10T01:10:12.707Z,0
2017-03-10T01:11:26.163Z,0
2017-03-10T01:12:39.619Z,0
2017-03-10T01:13:53.188Z,0
2017-03-10T01:15:06.650Z,0
2017-03-10T01:16:22.663Z,0
2017-03-10T01:17:36.111Z,0
2017-03-10T01:18:50.462Z,0
2017-03-10T01:20:10.374Z,0
2017-03-10T01:21:31.099Z,0
2017-03-10T01:22:50.810Z,0
2017-03-10T01:24:12.417Z,0
2017-03-10T01:25:33.748Z,0
2017-03-10T01:26:55.645Z,0
2017-03-10T01:28:16.799Z,0
2017-03-10T01:29:36.526Z,0
2017-03-10T01:30:55.465Z,0
2017-03-10T01:32:14.014Z,0
2017-03-10T01:33:32.447Z,0
2017-03-10T01:34:50.378Z,0
2017-03-10T01:36:05.652Z,0
2017-03-10T01:37:19.100Z,0
2017-03-10T01:38:32.601Z,0
2017-03-10T01:39:46.328Z,0
2017-03-10T01:41:00.313Z,0
2017-03-10T01:42:14.203Z,0
2017-03-10T01:43:27.941Z,0
2017-03-10T01:44:41.895Z,0
2017-03-10T01:45:55.379Z,0
2017-03-10T01:47:08.868Z,0
2017-03-10T01:48:22.796Z,0
2017-03-10T01:49:36.762Z,0
2017-03-10T01:50:50.741Z,0
2017-03-10T01:52:04.323Z,0
2017-03-10T01:53:17.792Z,0
2017-03-10T01:54:31.757Z,0
2017-03-10T01:55:45.624Z,0
2017-03-10T01:56:59.169Z,0
2017-03-10T01:58:13.028Z,0
2017-03-10T01:59:26.927Z,0
2017-03-10T02:00:40.583Z,0
2017-03-10T02:01:54.754Z,0
2017-03-10T02:03:08.283Z,0
2017-03-10T02:04:21.832Z,0
2017-03-10T02:05:35.295Z,0
2017-03-10T02:06:48.898Z,0
2017-03-10T02:08:02.828Z,0
2017-03-10T02:09:17.849Z,0
2017-03-10T02:10:32.260Z,0
2017-03-10T02:11:45.821Z,0
2017-03-10T02:12:59.719Z,0
2017-03-10T02:14:13.215Z,0
2017-03-10T02:15:27.824Z,0
2017-03-10T02:16:41.317Z,0
2017-03-10T02:17:54.743Z,0
2017-03-10T02:19:08.182Z,0
2017-03-10T02:20:21.604Z,0
2017-03-10T02:21:35.033Z,0
2017-03-10T02:22:48.510Z,0
2017-03-10T02:24:02.819Z,0
2017-03-10T02:25:16.259Z,0
2017-03-10T02:26:29.674Z,0
2017-03-10T02:27:43.222Z,0
2017-03-10T02:28:56.662Z,0
2017-03-10T02:30:10.243Z,0
2017-03-10T02:31:24.048Z,0
2017-03-10T02:32:38.398Z,0
2017-03-10T02:33:54.203Z,0
2017-03-10T02:35:07.601Z,0
2017-03-10T02:36:21.049Z,0
2017-03-10T02:37:34.541Z,0
2017-03-10T02:38:48.105Z,0
2017-03-10T02:40:02.026Z,0
2017-03-10T02:41:15.478Z,0
2017-03-10T02:42:28.871Z,0
2017-03-10T02:43:42.415Z,0
2017-03-10T02:44:55.889Z,0
2017-03-10T02:46:09.743Z,0
2017-03-10T02:47:23.631Z,0
2017-03-10T02:48:37.134Z,0
2017-03-10T02:49:50.582Z,0
2017-03-10T02:51:04.354Z,0
2017-03-10T02:52:17.772Z,0
2017-03-10T02:53:31.259Z,0
2017-03-10T02:54:45.482Z,0
2017-03-10T02:55:59.915Z,0
2017-03-10T02:57:13.604Z,0
2017-03-10T02:58:27.130Z,0
2017-03-10T02:59:41.063Z,0
2017-03-10T03:00:54.549Z,0
2017-03-10T03:02:08.571Z,0
2017-03-10T03:03:22.423Z,0
2017-03-10T03:04:36.371Z,0
2017-03-10T03:05:49.817Z,0
2017-03-10T03:07:03.352Z,0
2017-03-10T03:08:16.801Z,0
2017-03-10T03:09:30.441Z,0
2017-03-10T03:10:44.812Z,0
2017-03-10T03:11:58.320Z,0
2017-03-10T03:13:11.833Z,0
2017-03-10T03:14:25.862Z,0
2017-03-10T03:15:39.364Z,0
2017-03-10T03:16:52.877Z,0
2017-03-10T03:18:06.335Z,0
2017-03-10T03:19:20.207Z,0
2017-03-10T03:20:34.603Z,0
2017-03-10T03:21:48.880Z,0
2017-03-10T03:23:02.395Z,0
2017-03-10T03:24:15.867Z,0
2017-03-10T03:25:29.330Z,0
2017-03-10T03:26:43.274Z,0
2017-03-10T03:27:57.828Z,0
2017-03-10T03:29:11.759Z,0
2017-03-10T03:30:25.298Z,0
2017-03-10T03:31:39.353Z,0
2017-03-10T03:32:53.270Z,0
2017-03-10T03:34:06.875Z,0
2017-03-10T03:35:20.426Z,0
2017-03-10T03:36:34.229Z,0
2017-03-10T03:37:47.677Z,0
2017-03-10T03:39:01.173Z,0
2017-03-10T03:40:15.102Z,0
2017-03-10T03:41:29.107Z,0
2017-03-10T03:42:42.831Z,0
2017-03-10T03:43:56.483Z,0
2017-03-10T03:45:10.396Z,0
2017-03-10T03:46:24.326Z,0
2017-03-10T03:47:53.129Z,0
2017-03-10T03:49:06.591Z,0
2017-03-10T03:50:22.656Z,0
2017-03-10T03:51:37.091Z,0
2017-03-10T03:52:52.327Z,0
2017-03-10T03:54:05.832Z,0
2017-03-10T03:55:19.781Z,0
2017-03-10T03:56:33.245Z,0
2017-03-10T03:57:46.831Z,0
2017-03-10T03:59:01.052Z,0
2017-03-10T04:00:14.525Z,0
2017-03-10T04:01:28.127Z,0
2017-03-10T04:02:42.814Z,0
2017-03-10T04:03:56.579Z,0
2017-03-10T04:05:10.577Z,0
2017-03-10T04:06:24.009Z,0
2017-03-10T04:07:37.479Z,0
2017-03-10T04:08:51.474Z,0
2017-03-10T04:10:05.037Z,0
2017-03-10T04:11:18.570Z,0
2017-03-10T04:12:32.038Z,0
2017-03-10T04:13:45.573Z,0
2017-03-10T04:14:59.487Z,0
2017-03-10T04:16:12.972Z,0
2017-03-10T04:17:26.961Z,0
2017-03-10T04:18:41.138Z,0
2017-03-10T04:19:54.681Z,0
2017-03-10T04:21:08.156Z,0
2017-03-10T04:22:22.026Z,0
2017-03-10T04:26:35.221Z,0
2017-03-10T04:27:49.115Z,0
2017-03-10T04:29:02.990Z,0
2017-03-10T04:30:16.866Z,0
2017-03-10T04:31:31.140Z,0
2017-03-10T04:32:44.891Z,0
2017-03-10T04:33:58.766Z,0
2017-03-10T04:35:12.655Z,0
2017-03-10T04:36:26.231Z,0
2017-03-10T04:37:40.166Z,0
2017-03-10T04:38:53.574Z,0
2017-03-10T04:40:07.229Z,0
2017-03-10T04:41:20.924Z,0
2017-03-10T04:42:34.493Z,0
2017-03-10T04:43:47.926Z,0
2017-03-10T04:45:02.231Z,0
2017-03-10T04:46:16.400Z,0
2017-03-10T04:47:30.012Z,0
2017-03-10T04:48:43.455Z,0
2017-03-10T04:49:57.468Z,0
2017-03-10T04:51:11.017Z,0
2017-03-10T04:52:24.605Z,0
2017-03-10T04:53:38.135Z,0
2017-03-10T04:54:51.641Z,0
2017-03-10T04:56:05.202Z,0
2017-03-10T04:57:18.620Z,0
2017-03-10T04:58:33.260Z,0
2017-03-10T04:59:46.748Z,0
2017-03-10T05:01:00.360Z,0
2017-03-10T05:02:13.834Z,0
2017-03-10T05:03:33.577Z,0
2017-03-10T05:04:51.561Z,0
2017-03-10T05:06:07.476Z,0
2017-03-10T05:07:22.219Z,0
2017-03-10T05:08:39.514Z,0
2017-03-10T05:09:54.882Z,0
2017-03-10T05:11:09.763Z,0
2017-03-10T05:12:23.834Z,0
2017-03-10T05:13:37.705Z,0
2017-03-10T05:14:51.140Z,0
2017-03-10T05:16:04.603Z,0
2017-03-10T05:17:18.114Z,0
2017-03-10T05:18:32.101Z,0
2017-03-10T05:19:45.583Z,0
2017-03-10T05:20:59.006Z,0
2017-03-10T05:22:12.980Z,0
2017-03-10T05:23:26.913Z,4
2017-03-10T05:24:40.945Z,4
2017-03-10T05:25:54.425Z,4
2017-03-10T05:27:07.883Z,4
2017-03-10T05:28:21.622Z,4
2017-03-10T05:29:35.091Z,8
2017-03-10T05:30:48.617Z,12
2017-03-10T05:32:02.363Z,12
2017-03-10T05:33:15.779Z,12
2017-03-10T05:34:29.715Z,16
2017-03-10T05:35:43.587Z,20
2017-03-10T05:36:57.640Z,24
2017-03-10T05:38:11.668Z,32
2017-03-10T05:39:31.418Z,40
2017-03-10T05:40:48.490Z,44
2017-03-10T05:42:03.208Z,52
2017-03-10T05:43:18.409Z,64
2017-03-10T05:44:32.004Z,76
2017-03-10T05:45:46.747Z,84
2017-03-10T05:47:00.267Z,96
2017-03-10T05:48:14.458Z,108
2017-03-10T05:49:27.998Z,124
2017-03-10T05:50:41.524Z,140
2017-03-10T05:51:55.404Z,156
2017-03-10T05:53:08.901Z,172
2017-03-10T05:54:22.356Z,188
2017-03-10T05:55:35.932Z,204
2017-03-10T05:56:49.495Z,224
2017-03-10T05:58:03.390Z,244
2017-03-10T05:59:16.841Z,264
2017-03-10T06:00:30.676Z,292
2017-03-10T06:01:44.569Z,316
2017-03-10T06:02:58.139Z,356
2017-03-10T06:04:12.072Z,376
2017-03-10T06:06:12.422Z,412
2017-03-10T06:07:25.970Z,460
2017-03-10T06:09:18.580Z,536
2017-03-10T06:10:32.051Z,560
2017-03-10T06:11:45.678Z,564
2017-03-10T06:14:35.189Z,604
2017-03-10T06:15:48.683Z,632
2017-03-10T06:17:02.603Z,680
2017-03-10T06:18:16.880Z,724
2017-03-10T06:19:30.329Z,764
2017-03-10T06:20:43.839Z,780
2017-03-10T06:21:58.395Z,828
2017-03-10T06:23:11.887Z,880
2017-03-10T06:24:25.329Z,852
2017-03-10T06:25:38.739Z,840
2017-03-10T06:26:52.381Z,892
2017-03-10T06:28:08.466Z,936
2017-03-10T06:29:21.999Z,960
2017-03-10T06:30:35.469Z,952
2017-03-10T06:31:49.395Z,1056
2017-03-10T06:33:03.355Z,1052
2017-03-10T06:34:16.799Z,1016
2017-03-10T06:35:30.677Z,1004
2017-03-10T06:36:44.129Z,1064
2017-03-10T06:37:57.747Z,1148
2017-03-10T06:39:11.183Z,1236
2017-03-10T06:40:24.613Z,1304
2017-03-10T06:41:38.473Z,1344
2017-03-10T06:42:51.955Z,1320
2017-03-10T06:44:05.773Z,1296
2017-03-10T06:45:19.208Z,1244
2017-03-10T06:46:33.142Z,1444
2017-03-10T06:47:46.584Z,1572
2017-03-10T06:49:00.154Z,1512
2017-03-10T06:50:13.589Z,1428
2017-03-10T06:51:27.661Z,1464
2017-03-10T06:52:42.010Z,1488
2017-03-10T06:53:55.877Z,1552
2017-03-10T06:55:10.607Z,1556
2017-03-10T06:56:24.541Z,1540
2017-03-10T06:57:38.043Z,1648
2017-03-10T06:58:51.461Z,1812
2017-03-10T07:00:05.726Z,1816
2017-03-10T07:01:19.253Z,1868
2017-03-10T07:02:32.730Z,2052
2017-03-10T07:03:46.176Z,2184
2017-03-10T07:05:00.361Z,2208
2017-03-10T07:06:14.502Z,2256
2017-03-10T07:07:27.977Z,2244
2017-03-10T07:08:41.542Z,2388
2017-03-10T07:09:55.063Z,2440
2017-03-10T07:11:08.558Z,2356
2017-03-10T07:12:22.004Z,2268
2017-03-10T07:13:35.428Z,2264
2017-03-10T07:14:48.917Z,2464
2017-03-10T07:16:02.501Z,2588
2017-03-10T07:17:16.531Z,2636
2017-03-10T07:18:29.979Z,2560
2017-03-10T07:19:43.437Z,2728
2017-03-10T07:20:56.973Z,2936
2017-03-10T07:22:10.445Z,3004
2017-03-10T07:23:24.162Z,3044
2017-03-10T07:24:37.610Z,2972
2017-03-10T07:25:51.151Z,2736
2017-03-10T07:27:04.596Z,2504
2017-03-10T07:28:18.020Z,2236
2017-03-10T07:29:31.867Z,2020
2017-03-10T07:30:45.493Z,1792
2017-03-10T07:31:59.050Z,1772
2017-03-10T07:33:12.893Z,1840
2017-03-10T07:34:26.318Z,1788
2017-03-10T07:35:39.809Z,1852
2017-03-10T07:36:53.809Z,1784
2017-03-10T07:38:07.695Z,1628
2017-03-10T07:39:21.164Z,1648
2017-03-10T07:40:35.107Z,1672
2017-03-10T07:41:48.644Z,1664
2017-03-10T07:43:02.529Z,1672
2017-03-10T07:44:18.184Z,1560
2017-03-10T07:45:31.648Z,1680
2017-03-10T07:46:45.184Z,1684
2017-03-10T07:47:58.669Z,1616
2017-03-10T07:49:13.002Z,1644
2017-03-10T07:50:26.460Z,1664
2017-03-10T07:51:39.922Z,1664
2017-03-10T07:52:53.466Z,1736
2017-03-10T07:54:06.898Z,1752
2017-03-10T07:55:20.340Z,1740
2017-03-10T07:56:33.850Z,1764
2017-03-10T07:57:47.391Z,1768
2017-03-10T07:59:01.251Z,1776
2017-03-10T08:00:14.737Z,1776
2017-03-10T08:01:28.228Z,1776
2017-03-10T08:02:41.785Z,1776
2017-03-10T08:03:55.215Z,1780
2017-03-10T08:05:08.852Z,1780
2017-03-10T08:06:22.708Z,1776
2017-03-10T08:07:36.266Z,1788
2017-03-10T08:08:50.016Z,1680
2017-03-10T08:10:03.513Z,1812
2017-03-10T08:11:16.973Z,1880
2017-03-10T08:12:30.418Z,1868
2017-03-10T08:13:44.390Z,1892
2017-03-10T08:14:57.826Z,1908
2017-03-10T08:16:11.737Z,1912
2017-03-10T08:17:25.987Z,1960
2017-03-10T08:18:39.594Z,2108
2017-03-10T08:19:53.070Z,2216
2017-03-10T08:21:44.803Z,2196
2017-03-10T08:22:58.293Z,2316
2017-03-10T08:24:11.921Z,2568
2017-03-10T08:25:25.892Z,2864
2017-03-10T08:26:39.335Z,3220
2017-03-10T08:27:53.187Z,3492
2017-03-10T08:29:06.653Z,3280
2017-03-10T08:30:20.096Z,2972
2017-03-10T08:31:33.912Z,2776
2017-03-10T08:32:47.870Z,2604
2017-03-10T08:34:01.389Z,2600
2017-03-10T08:35:15.327Z,2584
2017-03-10T08:36:28.764Z,2512
2017-03-10T08:37:42.230Z,2332
2017-03-10T08:38:55.788Z,2184
2017-03-10T08:40:09.383Z,1980
2017-03-10T08:41:23.226Z,1956
2017-03-10T08:42:36.685Z,2284
2017-03-10T08:43:50.120Z,2724
2017-03-10T08:45:04.100Z,3196
2017-03-10T08:46:17.938Z,3180
2017-03-10T08:47:31.815Z,3316
2017-03-10T08:48:46.079Z,3524
2017-03-10T08:49:59.960Z,3716
2017-03-10T08:51:13.914Z,3564
2017-03-10T08:52:27.837Z,3560
2017-03-10T08:53:41.660Z,4036
2017-03-10T08:54:55.123Z,3452
2017-03-10T08:56:08.663Z,3292
2017-03-10T08:57:22.107Z,3308
2017-03-10T08:58:35.629Z,3408
2017-03-10T08:59:49.087Z,3268
2017-03-10T09:01:05.233Z,3228
2017-03-10T09:02:18.766Z,3368
2017-03-10T09:03:32.182Z,3696
2017-03-10T09:04:46.076Z,3624
2017-03-10T09:05:59.555Z,3004
2017-03-10T09:07:13.043Z,3052
2017-03-10T09:08:26.502Z,3120
2017-03-10T09:09:40.365Z,3044
2017-03-10T09:10:53.971Z,3168
2017-03-10T09:12:07.526Z,2848
2017-03-10T09:13:20.989Z,2632
2017-03-10T09:14:34.434Z,3016
2017-03-10T09:15:47.831Z,2844
2017-03-10T09:17:01.411Z,3060
2017-03-10T09:18:15.266Z,3140
2017-03-10T09:19:28.683Z,3388
2017-03-10T09:20:42.152Z,3232
2017-03-10T09:21:55.692Z,3176
2017-03-10T09:23:09.562Z,2684
2017-03-10T09:24:23.179Z,2692
2017-03-10T09:25:36.632Z,2596
2017-03-10T09:26:50.527Z,2460
2017-03-10T09:28:04.338Z,2436
2017-03-10T09:29:17.787Z,2436
2017-03-10T09:30:31.907Z,2464
2017-03-10T09:31:45.367Z,2436
2017-03-10T09:32:58.943Z,2388
2017-03-10T09:34:12.404Z,2356
2017-03-10T09:35:25.888Z,2332
2017-03-10T09:36:39.378Z,2296
2017-03-10T09:37:52.930Z,2252
2017-03-10T09:39:06.526Z,2248
2017-03-10T09:40:20.013Z,2220
2017-03-10T09:41:33.481Z,2204
2017-03-10T09:42:46.907Z,2172
2017-03-10T09:44:00.668Z,2136
2017-03-10T09:45:14.139Z,2116
2017-03-10T09:46:27.608Z,2104
2017-03-10T09:47:41.459Z,2100
2017-03-10T09:48:55.045Z,2096
2017-03-10T09:50:08.587Z,2092
2017-03-10T09:51:22.449Z,2032
2017-03-10T09:52:36.308Z,2084
2017-03-10T09:53:50.577Z,2084
2017-03-10T09:55:04.212Z,2076
2017-03-10T09:56:17.765Z,2072
2017-03-10T09:57:31.593Z,2072
2017-03-10T09:58:45.020Z,2068
2017-03-10T09:59:58.570Z,2056
2017-03-10T10:01:12.009Z,2056
2017-03-10T10:02:25.514Z,2064
2017-03-10T10:03:39.024Z,2060
2017-03-10T10:04:52.583Z,1960
2017-03-10T10:06:06.019Z,2188
2017-03-10T10:07:19.869Z,2204
2017-03-10T10:08:33.310Z,2256
2017-03-10T10:09:47.571Z,2352
2017-03-10T10:11:01.180Z,2436
2017-03-10T10:12:15.074Z,2252
2017-03-10T10:13:28.555Z,2524
2017-03-10T10:14:42.002Z,2420
2017-03-10T10:15:55.927Z,2420
2017-03-10T10:17:11.607Z,2268
2017-03-10T10:18:25.054Z,2516
2017-03-10T10:19:38.902Z,2592
2017-03-10T10:20:52.454Z,2644
2017-03-10T10:22:05.907Z,2612
2017-03-10T10:23:19.409Z,2624
2017-03-10T10:24:32.848Z,2528
2017-03-10T10:25:46.308Z,2392
2017-03-10T10:26:59.799Z,2412
2017-03-10T10:28:13.325Z,2404
2017-03-10T10:29:26.771Z,2372
2017-03-10T10:30:40.236Z,2428
2017-03-10T10:31:54.131Z,2496
2017-03-10T10:33:07.544Z,2400
2017-03-10T10:34:20.986Z,2420
2017-03-10T10:35:34.473Z,2484
2017-03-10T10:36:48.440Z,2468
2017-03-10T10:38:02.029Z,2476
2017-03-10T10:39:15.993Z,2416
2017-03-10T10:40:29.891Z,2612
2017-03-10T10:41:43.358Z,2640
2017-03-10T10:42:56.827Z,2612
2017-03-10T10:44:10.395Z,2396
2017-03-10T10:45:23.871Z,2136
2017-03-10T10:46:37.392Z,2336
2017-03-10T10:47:50.881Z,2516
2017-03-10T10:49:04.675Z,2784
2017-03-10T10:50:18.645Z,3040
2017-03-10T10:51:32.083Z,3336
2017-03-10T10:52:45.632Z,3720
2017-03-10T10:53:59.103Z,3884
2017-03-10T10:55:13.066Z,4084
2017-03-10T10:56:26.628Z,4020
2017-03-10T10:57:40.576Z,3964
2017-03-10T10:58:54.057Z,3832
2017-03-10T11:00:07.824Z,3576
2017-03-10T11:01:21.367Z,3672
2017-03-10T11:02:35.322Z,3376
2017-03-10T11:03:49.327Z,3096
2017-03-10T11:05:02.783Z,2956
2017-03-10T11:06:16.336Z,2908
2017-03-10T11:07:30.743Z,2984
2017-03-10T11:08:44.393Z,3196
2017-03-10T11:09:57.856Z,3248
2017-03-10T11:11:11.621Z,3372
2017-03-10T11:12:25.533Z,3440
2017-03-10T11:13:39.451Z,3448
2017-03-10T11:14:53.428Z,3388
2017-03-10T11:16:07.048Z,3140
2017-03-10T11:17:20.524Z,2968
2017-03-10T11:18:34.577Z,2804
2017-03-10T11:19:48.110Z,2664
2017-03-10T11:21:01.599Z,2608
2017-03-10T11:22:15.135Z,2588
2017-03-10T11:23:28.612Z,2448
2017-03-10T11:24:42.535Z,2256
2017-03-10T11:25:55.979Z,2152
2017-03-10T11:27:09.706Z,2188
2017-03-10T11:28:23.586Z,2092
2017-03-10T11:29:37.382Z,2264
2017-03-10T11:30:50.877Z,2836
2017-03-10T11:32:04.900Z,3084
2017-03-10T11:33:20.767Z,3496
2017-03-10T11:34:34.431Z,3420
2017-03-10T11:35:48.620Z,3372
2017-03-10T11:37:03.829Z,3484
2017-03-10T11:38:17.364Z,3348
2017-03-10T11:39:31.013Z,3200
2017-03-10T11:40:44.760Z,3160
2017-03-10T11:41:58.263Z,3120
2017-03-10T11:43:12.331Z,2816
2017-03-10T11:44:26.384Z,2540
2017-03-10T11:45:40.724Z,2368
2017-03-10T11:46:54.644Z,2296
2017-03-10T11:48:08.719Z,2264
2017-03-10T11:49:22.664Z,2148
2017-03-10T11:50:37.413Z,2116
2017-03-10T11:51:51.012Z,2112
2017-03-10T11:53:04.618Z,2120
2017-03-10T11:54:19.414Z,2176
2017-03-10T11:55:33.649Z,2292
2017-03-10T11:56:47.286Z,2420
2017-03-10T11:58:01.295Z,2568
2017-03-10T11:59:15.135Z,2720
2017-03-10T12:00:29.047Z,2700
2017-03-10T12:01:42.676Z,2436
2017-03-10T12:02:56.162Z,2180
2017-03-10T12:04:10.120Z,2088
2017-03-10T12:05:24.140Z,2128
2017-03-10T12:06:38.320Z,2068
2017-03-10T12:07:52.393Z,2088
2017-03-10T12:09:06.434Z,2084
2017-03-10T12:10:20.160Z,2120
2017-03-10T12:11:34.419Z,2084
2017-03-10T12:12:49.126Z,2068
2017-03-10T12:14:02.736Z,2140
2017-03-10T12:15:16.899Z,2308
2017-03-10T12:16:30.519Z,2536
2017-03-10T12:17:44.445Z,2564
2017-03-10T12:18:59.020Z,2608
2017-03-10T12:20:13.072Z,2604
2017-03-10T12:21:26.550Z,2660
2017-03-10T12:22:41.540Z,2644
2017-03-10T12:23:55.088Z,2668
2017-03-10T12:25:08.942Z,2672
2017-03-10T12:26:22.456Z,2548
2017-03-10T12:27:35.960Z,2488
2017-03-10T12:28:49.456Z,2460
2017-03-10T12:30:02.967Z,2420
2017-03-10T12:31:16.864Z,2372
2017-03-10T12:32:30.763Z,2344
2017-03-10T12:33:44.666Z,2296
2017-03-10T12:34:58.167Z,2272
2017-03-10T12:36:11.768Z,2336
2017-03-10T12:37:25.625Z,2312
2017-03-10T12:38:39.073Z,2388
2017-03-10T12:40:11.829Z,2348
2017-03-10T12:41:25.297Z,2352
2017-03-10T12:42:39.192Z,2356
2017-03-10T12:43:52.672Z,2392
2017-03-10T12:45:06.212Z,2532
2017-03-10T12:46:19.685Z,2712
2017-03-10T12:47:33.142Z,2892
2017-03-10T12:48:46.939Z,2792
2017-03-10T12:50:02.570Z,2528
2017-03-10T12:51:16.147Z,2460
2017-03-10T12:52:29.615Z,2472
2017-03-10T12:53:43.262Z,2456
2017-03-10T12:54:56.975Z,2448
2017-03-10T12:56:11.696Z,2452
2017-03-10T12:57:25.181Z,2420
2017-03-10T12:58:39.055Z,2364
2017-03-10T12:59:52.501Z,2320
2017-03-10T13:01:06.773Z,2284
2017-03-10T13:02:20.755Z,2256
2017-03-10T13:03:34.179Z,2288
2017-03-10T13:04:48.474Z,2332
2017-03-10T13:06:02.025Z,2308
2017-03-10T13:07:15.889Z,2288
2017-03-10T13:08:29.421Z,2260
2017-03-10T13:09:43.416Z,2152
2017-03-10T13:10:57.711Z,2116
2017-03-10T13:12:11.762Z,2084
2017-03-10T13:13:26.045Z,2004
2017-03-10T13:14:40.107Z,2000
2017-03-10T13:15:54.028Z,2008
2017-03-10T13:17:08.288Z,2004
2017-03-10T13:18:22.539Z,2020
2017-03-10T13:19:36.292Z,2080
2017-03-10T13:20:49.844Z,2080
2017-03-10T13:22:03.793Z,2080
2017-03-10T13:23:17.395Z,2084
2017-03-10T13:24:30.897Z,2064
2017-03-10T13:25:44.646Z,2040
2017-03-10T13:26:58.237Z,2056
2017-03-10T13:28:12.244Z,2056
2017-03-10T13:29:25.730Z,2004
2017-03-10T13:30:39.646Z,1956
2017-03-10T13:31:53.410Z,1888
2017-03-10T13:33:07.978Z,1880
2017-03-10T13:34:21.458Z,1868
2017-03-10T13:35:34.948Z,1864
2017-03-10T13:36:48.404Z,1860
2017-03-10T13:38:02.284Z,1884
2017-03-10T13:39:15.864Z,1864
2017-03-10T13:40:29.486Z,1852
2017-03-10T13:41:42.963Z,1844
2017-03-10T13:42:56.510Z,1844
2017-03-10T13:44:10.356Z,1856
2017-03-10T13:45:23.837Z,1856
2017-03-10T13:46:37.676Z,1876
2017-03-10T13:47:51.194Z,1900
2017-03-10T13:49:04.811Z,1896
2017-03-10T13:50:18.542Z,1904
2017-03-10T13:51:32.414Z,1904
2017-03-10T13:52:45.870Z,1888
2017-03-10T13:53:59.762Z,1876
2017-03-10T13:55:13.336Z,1868
2017-03-10T13:56:27.111Z,1852
2017-03-10T13:57:41.013Z,1840
2017-03-10T13:58:54.922Z,1832
2017-03-10T14:00:08.921Z,1832
2017-03-10T14:01:22.394Z,1820
2017-03-10T14:02:37.231Z,1828
2017-03-10T14:03:51.031Z,1912
2017-03-10T14:05:04.999Z,2032
2017-03-10T14:06:20.652Z,2248
2017-03-10T14:07:34.095Z,2476
2017-03-10T14:08:47.541Z,2624
2017-03-10T14:10:01.591Z,2620
2017-03-10T14:11:15.054Z,2508
2017-03-10T14:12:28.989Z,2356
2017-03-10T14:13:42.468Z,2160
2017-03-10T14:14:56.233Z,1944
2017-03-10T14:16:09.797Z,1824
2017-03-10T14:17:23.303Z,1708
2017-03-10T14:18:36.966Z,1720
2017-03-10T14:19:51.725Z,1724
2017-03-10T14:21:05.815Z,1740
2017-03-10T14:22:19.779Z,1724
2017-03-10T14:23:33.283Z,1888
2017-03-10T14:24:46.823Z,1836
2017-03-10T14:26:00.482Z,1828
2017-03-10T14:27:14.781Z,1892
2017-03-10T14:28:28.635Z,1940
2017-03-10T14:29:42.127Z,2012
2017-03-10T14:30:55.594Z,1964
2017-03-10T14:32:09.815Z,1944
2017-03-10T14:33:23.581Z,2032
2017-03-10T14:36:13.870Z,2168
2017-03-10T14:37:27.801Z,2216
2017-03-10T14:38:41.554Z,2268
2017-03-10T14:39:54.996Z,2380
2017-03-10T14:41:08.496Z,2432
2017-03-10T14:42:22.532Z,2420
2017-03-10T14:43:35.988Z,2472
2017-03-10T14:44:49.740Z,2432
2017-03-10T14:46:03.247Z,2360
2017-03-10T14:47:17.462Z,2288
2017-03-10T14:48:30.959Z,2112
2017-03-10T14:49:44.415Z,2032
2017-03-10T14:50:58.196Z,1996
2017-03-10T14:52:11.787Z,1992
2017-03-10T14:53:25.277Z,1980
2017-03-10T14:54:38.729Z,2060
2017-03-10T14:55:52.724Z,2140
2017-03-10T14:57:06.479Z,2244
2017-03-10T14:58:20.575Z,2168
2017-03-10T14:59:34.484Z,2232
2017-03-10T15:00:48.354Z,2208
2017-03-10T15:02:01.814Z,2244
2017-03-10T15:03:15.761Z,2224
2017-03-10T15:04:29.181Z,2148
2017-03-10T15:05:42.658Z,2204
2017-03-10T15:06:56.184Z,2240
2017-03-10T15:08:11.308Z,2296
2017-03-10T15:09:24.800Z,2308
2017-03-10T15:10:38.646Z,2348
2017-03-10T15:11:52.117Z,2252
2017-03-10T15:13:08.203Z,2148
2017-03-10T15:14:22.135Z,2020
2017-03-10T15:15:36.096Z,2020
2017-03-10T15:16:49.605Z,2052
2017-03-10T15:18:03.108Z,2068
2017-03-10T15:19:16.636Z,2064
2017-03-10T15:20:30.551Z,2060
2017-03-10T15:21:44.096Z,2044
2017-03-10T15:23:10.838Z,1980
2017-03-10T15:24:26.474Z,1932
2017-03-10T15:25:41.605Z,1844
2017-03-10T15:26:55.593Z,1760
2017-03-10T15:28:09.101Z,1768
2017-03-10T15:29:22.614Z,1748
2017-03-10T15:30:37.032Z,1692
2017-03-10T15:31:50.503Z,1700
2017-03-10T15:33:04.440Z,1660
2017-03-10T15:34:18.111Z,1644
2017-03-10T15:35:32.206Z,1624
2017-03-10T15:36:45.696Z,1576
2017-03-10T15:37:59.174Z,1548
2017-03-10T15:39:12.920Z,1540
2017-03-10T15:40:26.798Z,1548
2017-03-10T15:41:40.263Z,1548
2017-03-10T15:42:54.221Z,1576
2017-03-10T15:44:33.917Z,1628
2017-03-10T15:45:47.925Z,1636
2017-03-10T15:47:01.405Z,1632
2017-03-10T15:48:14.902Z,1628
2017-03-10T15:49:28.882Z,1568
2017-03-10T15:50:42.561Z,1468
2017-03-10T15:51:56.082Z,1400
2017-03-10T15:53:09.952Z,1360
2017-03-10T15:54:23.411Z,1344
2017-03-10T15:55:36.955Z,1316
2017-03-10T15:56:51.035Z,1304
2017-03-10T16:01:24.210Z,1296
2017-03-10T16:02:38.099Z,1340
2017-03-10T16:03:51.543Z,1380
2017-03-10T16:05:05.016Z,1376
2017-03-10T16:06:19.041Z,1360
2017-03-10T16:07:32.968Z,1312
2017-03-10T16:08:47.050Z,1280
2017-03-10T16:10:01.416Z,1280
2017-03-10T16:11:14.984Z,1248
2017-03-10T16:12:28.421Z,1232
2017-03-10T16:13:42.301Z,1132
2017-03-10T16:14:56.194Z,1064
2017-03-10T16:16:10.851Z,1000
2017-03-10T16:17:24.412Z,932
2017-03-10T16:18:39.063Z,904
2017-03-10T16:19:52.599Z,900
2017-03-10T16:21:13.740Z,892
2017-03-10T16:22:38.611Z,888
2017-03-10T16:24:06.411Z,876
2017-03-10T16:25:31.590Z,868
2017-03-10T16:26:58.326Z,872
2017-03-10T16:28:24.662Z,876
2017-03-10T16:29:48.024Z,856
2017-03-10T16:31:14.359Z,828
2017-03-10T16:32:38.367Z,784
2017-03-10T16:34:06.844Z,736
2017-03-10T16:35:30.637Z,700
2017-03-10T16:36:48.819Z,668
2017-03-10T16:38:04.510Z,640
2017-03-10T16:39:19.129Z,624
2017-03-10T16:40:32.586Z,608
2017-03-10T16:41:46.140Z,580
2017-03-10T16:42:59.687Z,556
2017-03-10T16:44:14.870Z,532
2017-03-10T16:45:31.209Z,524
2017-03-10T16:46:45.129Z,508
2017-03-10T16:47:59.598Z,488
2017-03-10T16:49:14.052Z,472
2017-03-10T16:50:28.448Z,448
2017-03-10T16:51:42.305Z,424
2017-03-10T16:52:56.311Z,408
2017-03-10T16:54:13.821Z,392
2017-03-10T16:55:27.795Z,376
2017-03-10T16:56:42.065Z,360
2017-03-10T16:57:56.219Z,352
2017-03-10T16:59:11.578Z,340
2017-03-10T17:00:26.096Z,328
2017-03-10T17:01:40.780Z,312
2017-03-10T17:02:54.597Z,296
2017-03-10T17:04:10.038Z,280
2017-03-10T17:05:23.713Z,264
2017-03-10T17:06:37.988Z,248
2017-03-10T17:07:52.101Z,232
2017-03-10T17:09:06.271Z,220
2017-03-10T17:10:20.871Z,204
2017-03-10T17:11:35.039Z,188
2017-03-10T17:12:49.216Z,172
2017-03-10T17:14:04.277Z,152
2017-03-10T17:15:19.393Z,140